Time;durP1;ratioP1;P1;durP2;ratioP2;P2;SDS_P1;SDS_P2;PMS_P1;PMS_P2;Temp;Humidity;BMP_temperature;BMP_pressure;BME280_temperature;BME280_humidity;BME280_pressure;Samples;Min_cycle;Max_cycle;Signal;HPM_P1;HPM_P2
2023/08/29 00:04:38;;;;;;;;;;;;;;;11.02;100.00;94843.06;10525559;28;2235;-77
2023/08/29 00:09:40;;;;;;;;;;;;;;;10.93;100.00;94863.66;10520396;28;1897;-76
2023/08/29 00:14:42;;;;;;;;;;;;;;;11.12;100.00;94850.13;10521573;28;1870;-77
2023/08/29 00:19:45;;;;;;;;;;;;;;;11.18;100.00;94848.94;10530817;28;1988;-76
2023/08/29 00:24:48;;;;;;;;;;;;;;;10.94;100.00;94867.94;10529718;28;1908;-76
2023/08/29 00:29:50;;;;;;;;;;;;;;;11.04;100.00;94855.09;10525926;28;1948;-76
2023/08/29 00:34:52;;;;;;;;;;;;;;;11.07;100.00;94854.53;10524361;28;1827;-77
2023/08/29 00:39:55;;;;;;;;;;;;;;;10.86;100.00;94861.38;10526800;28;2043;-78
2023/08/29 00:44:58;;;;;;;;;;;;;;;10.78;100.00;94854.78;10533013;28;4580;-76
2023/08/29 00:50:00;;;;;;;;;;;;;;;10.70;100.00;94842.03;10516340;28;1954;-77
2023/08/29 00:55:03;;;;;;;;;;;;;;;10.67;100.00;94850.69;10528717;28;1903;-77
2023/08/29 01:00:06;;;;;;;;;;;;;;;10.66;100.00;94849.09;10529850;28;1906;-76
2023/08/29 01:05:08;;;;;;;;;;;;;;;10.61;100.00;94838.44;10530790;28;2050;-75
2023/08/29 01:10:10;;;;;;;;;;;;;;;10.54;100.00;94851.47;10521682;28;2039;-76
2023/08/29 01:15:13;;;;;;;;;;;;;;;10.55;100.00;94842.28;10531212;28;1959;-76
2023/08/29 01:20:15;;;;;;;;;;;;;;;10.44;100.00;94836.31;10528366;28;1918;-76
2023/08/29 01:25:18;;;;;;;;;;;;;;;10.36;100.00;94830.81;10518300;28;1883;-75
2023/08/29 01:30:20;;;;;;;;;;;;;;;10.31;100.00;94831.72;10527771;28;1978;-76
2023/08/29 01:35:23;;;;;;;;;;;;;;;10.27;100.00;94836.88;10520051;28;1899;-76
2023/08/29 01:40:25;;;;;;;;;;;;;;;10.42;100.00;94838.47;10527169;28;2013;-76
2023/08/29 01:45:27;;;;;;;;;;;;;;;10.33;100.00;94842.16;10523169;28;4797;-76
2023/08/29 01:50:30;;;;;;;;;;;;;;;10.44;100.00;94848.97;10522470;28;1824;-75
2023/08/29 01:55:32;;;;;;;;;;;;;;;10.27;100.00;94847.59;10531312;28;1949;-75
2023/08/29 02:00:35;;;;;;;;;;;;;;;10.24;100.00;94842.84;10531021;28;1983;-75
2023/08/29 02:05:37;;;;;;;;;;;;;;;10.09;100.00;94845.72;10522337;28;1906;-74
2023/08/29 02:10:39;;;;;;;;;;;;;;;10.09;100.00;94845.72;10531568;28;1854;-76
2023/08/29 02:15:42;;;;;;;;;;;;;;;9.97;100.00;94850.75;10532551;28;1858;-75
2023/08/29 02:20:44;;;;;;;;;;;;;;;9.94;100.00;94841.41;10528869;28;1950;-77
2023/08/29 02:25:46;;;;;;;;;;;;;;;9.95;100.00;94847.56;10532458;28;1839;-75
2023/08/29 02:30:49;;;;;;;;;;;;;;;9.90;100.00;94842.25;10529107;28;1890;-75
2023/08/29 02:35:52;;;;;;;;;;;;;;;9.90;100.00;94850.31;10528966;28;2030;-76
2023/08/29 02:40:54;;;;;;;;;;;;;;;10.01;100.00;94841.03;10531622;28;4527;-75
2023/08/29 02:45:57;;;;;;;;;;;;;;;10.01;100.00;94849.06;10532928;28;1902;-76
2023/08/29 02:50:59;;;;;;;;;;;;;;;9.99;100.00;94843.22;10530079;28;2027;-76
2023/08/29 02:56:01;;;;;;;;;;;;;;;10.00;100.00;94839.44;10539284;28;1970;-74
2023/08/29 03:01:11;;;;;;;;;;;;;;;10.00;100.00;94842.13;10522863;28;1862;-75
2023/08/29 03:06:13;;;;;;;;;;;;;;;10.10;100.00;94841.16;10525566;28;1857;-75
2023/08/29 03:11:16;;;;;;;;;;;;;;;10.23;100.00;94838.53;10535691;28;1942;-77
2023/08/29 03:16:18;;;;;;;;;;;;;;;10.21;100.00;94840.69;10528576;28;1987;-76
2023/08/29 03:21:22;;;;;;;;;;;;;;;10.24;100.00;94834.78;10534207;28;2008;-76
2023/08/29 03:26:24;;;;;;;;;;;;;;;10.22;100.00;94834.22;10529802;28;1859;-76
2023/08/29 03:31:26;;;;;;;;;;;;;;;10.17;100.00;94831.63;10529807;28;1971;-75
2023/08/29 03:36:29;;;;;;;;;;;;;;;10.22;100.00;94828.84;10532338;28;2312;-76
2023/08/29 03:41:31;;;;;;;;;;;;;;;10.26;100.00;94829.91;10528874;28;2005;-76
2023/08/29 03:46:33;;;;;;;;;;;;;;;10.25;100.00;94822.94;10533474;28;2035;-76
2023/08/29 03:51:36;;;;;;;;;;;;;;;10.28;100.00;94833.09;10528892;28;1922;-76
2023/08/29 03:56:38;;;;;;;;;;;;;;;10.21;100.00;94838.00;10524633;28;1906;-74
2023/08/29 04:01:42;;;;;;;;;;;;;;;10.24;100.00;94842.00;10529982;28;1952;-75
2023/08/29 04:06:44;;;;;;;;;;;;;;;10.28;100.00;94838.44;10537826;28;2263;-74
2023/08/29 04:11:47;;;;;;;;;;;;;;;10.33;100.00;94834.09;10525768;28;1882;-76
2023/08/29 04:16:49;;;;;;;;;;;;;;;10.26;100.00;94834.47;10529152;28;1918;-76
2023/08/29 04:21:51;;;;;;;;;;;;;;;10.30;100.00;94835.47;10524906;28;1918;-75
2023/08/29 04:26:54;;;;;;;;;;;;;;;10.37;100.00;94845.84;10520018;28;1904;-76
2023/08/29 04:31:56;;;;;;;;;;;;;;;10.36;100.00;94838.88;10527466;28;2698;-76
2023/08/29 04:36:58;;;;;;;;;;;;;;;10.39;100.00;94843.66;10526736;28;2112;-75
2023/08/29 04:42:01;;;;;;;;;;;;;;;10.38;100.00;94850.13;10532947;28;4687;-76
2023/08/29 04:47:04;;;;;;;;;;;;;;;10.43;100.00;94839.28;10538047;28;1883;-74
2023/08/29 04:52:06;;;;;;;;;;;;;;;10.37;100.00;94832.41;10515664;28;1970;-75
2023/08/29 04:57:08;;;;;;;;;;;;;;;10.43;100.00;94832.03;10524579;28;1967;-75
2023/08/29 05:02:11;;;;;;;;;;;;;;;10.39;100.00;94836.41;10523123;28;1979;-79
2023/08/29 05:07:13;;;;;;;;;;;;;;;10.39;100.00;94832.91;10518313;28;2015;-75
2023/08/29 05:12:16;;;;;;;;;;;;;;;10.52;100.00;94837.53;10524599;28;1887;-75
2023/08/29 05:17:18;;;;;;;;;;;;;;;10.61;100.00;94851.06;10528598;28;1973;-75
2023/08/29 05:22:21;;;;;;;;;;;;;;;10.65;100.00;94842.13;10525109;28;1831;-77
2023/08/29 05:27:23;;;;;;;;;;;;;;;10.61;100.00;94849.19;10514609;28;2267;-75
2023/08/29 05:32:26;;;;;;;;;;;;;;;10.69;100.00;94853.88;10528110;28;1866;-75
2023/08/29 05:37:29;;;;;;;;;;;;;;;10.64;100.00;94853.19;10522271;28;1980;-75
2023/08/29 05:42:31;;;;;;;;;;;;;;;10.78;100.00;94846.72;10523547;28;4698;-75
2023/08/29 05:47:34;;;;;;;;;;;;;;;10.76;100.00;94851.59;10531933;28;1814;-74
2023/08/29 05:52:36;;;;;;;;;;;;;;;10.75;100.00;94859.94;10533289;28;1919;-75
2023/08/29 05:57:38;;;;;;;;;;;;;;;10.66;100.00;94859.84;10536512;28;1909;-74
2023/08/29 06:02:41;;;;;;;;;;;;;;;10.75;100.00;94857.25;10522553;28;1774;-74
2023/08/29 06:07:43;;;;;;;;;;;;;;;10.88;100.00;94869.13;10525290;28;1811;-76
2023/08/29 06:12:46;;;;;;;;;;;;;;;10.81;100.00;94873.03;10531091;28;1788;-76
2023/08/29 06:17:49;;;;;;;;;;;;;;;10.80;100.00;94876.00;10519072;28;1926;-77
2023/08/29 06:22:51;;;;;;;;;;;;;;;11.03;100.00;94879.63;10528386;28;1874;-77
2023/08/29 06:27:54;;;;;;;;;;;;;;;11.14;100.00;94877.53;10526855;28;1819;-76
2023/08/29 06:32:56;;;;;;;;;;;;;;;11.10;100.00;94883.50;10526985;28;1882;-77
2023/08/29 06:37:59;;;;;;;;;;;;;;;11.30;100.00;94890.38;10520119;28;1906;-79
2023/08/29 06:43:01;;;;;;;;;;;;;;;11.32;100.00;94898.13;10522056;28;4492;-76
2023/08/29 06:48:04;;;;;;;;;;;;;;;11.25;100.00;94908.50;10525222;28;1835;-74
2023/08/29 06:53:07;;;;;;;;;;;;;;;11.13;100.00;94916.25;10514784;28;1815;-72
2023/08/29 06:58:10;;;;;;;;;;;;;;;11.13;100.00;94914.38;10512967;28;1918;-74
2023/08/29 07:03:13;;;;;;;;;;;;;;;11.15;100.00;94909.50;10515963;28;1977;-74
2023/08/29 07:08:15;;;;;;;;;;;;;;;11.31;100.00;94905.41;10526863;28;2062;-76
2023/08/29 07:13:18;;;;;;;;;;;;;;;11.45;100.00;94918.06;10519540;28;1784;-73
2023/08/29 07:18:20;;;;;;;;;;;;;;;11.56;100.00;94919.47;10524613;28;1980;-73
2023/08/29 07:23:23;;;;;;;;;;;;;;;11.43;100.00;94922.97;10519839;28;2318;-77
2023/08/29 07:28:25;;;;;;;;;;;;;;;11.40;100.00;94920.88;10523376;28;1874;-75
2023/08/29 07:33:27;;;;;;;;;;;;;;;11.62;100.00;94931.72;10514802;28;1920;-73
2023/08/29 07:38:30;;;;;;;;;;;;;;;11.63;100.00;94930.63;10527382;28;1906;-76
2023/08/29 07:43:32;;;;;;;;;;;;;;;11.71;100.00;94931.84;10532041;28;1951;-75
2023/08/29 07:48:35;;;;;;;;;;;;;;;11.81;100.00;94935.13;10517723;28;1834;-75
2023/08/29 07:53:37;;;;;;;;;;;;;;;11.97;100.00;94929.44;10518510;28;1860;-76
2023/08/29 07:58:40;;;;;;;;;;;;;;;12.07;100.00;94942.66;10540579;28;2266;-75
2023/08/29 08:03:43;;;;;;;;;;;;;;;12.08;100.00;94936.97;10526081;28;1689;-76
2023/08/29 08:08:46;;;;;;;;;;;;;;;12.10;100.00;94931.28;10525304;28;1909;-73
2023/08/29 08:13:49;;;;;;;;;;;;;;;12.46;100.00;94936.66;10519871;28;1819;-76
2023/08/29 08:18:51;;;;;;;;;;;;;;;12.36;100.00;94945.00;10514481;28;2425;-75
2023/08/29 08:23:54;;;;;;;;;;;;;;;12.29;100.00;94945.41;10516540;28;2089;-73
2023/08/29 08:28:58;;;;;;;;;;;;;;;12.25;100.00;94940.94;10519820;28;1874;-74
2023/08/29 08:34:00;;;;;;;;;;;;;;;12.21;100.00;94956.88;10519994;28;1698;-73
2023/08/29 08:39:03;;;;;;;;;;;;;;;12.18;100.00;94962.91;10523166;28;1915;-74
2023/08/29 08:44:06;;;;;;;;;;;;;;;12.07;100.00;94958.81;10524387;28;1805;-74
2023/08/29 08:49:08;;;;;;;;;;;;;;;12.28;100.00;94970.78;10510106;28;1831;-73
2023/08/29 08:54:11;;;;;;;;;;;;;;;12.34;100.00;94987.59;10523050;28;1889;-75
2023/08/29 08:59:13;;;;;;;;;;;;;;;12.30;100.00;94987.41;10522059;28;1984;-74
2023/08/29 09:04:15;;;;;;;;;;;;;;;12.31;100.00;94985.53;10519388;28;1839;-75
2023/08/29 09:09:19;;;;;;;;;;;;;;;12.61;100.00;94992.13;10508957;28;1940;-77
2023/08/29 09:14:21;;;;;;;;;;;;;;;12.68;100.00;94990.59;10517436;28;1913;-75
2023/08/29 09:19:23;;;;;;;;;;;;;;;12.73;100.00;94995.09;10531906;28;1988;-75
2023/08/29 09:24:26;;;;;;;;;;;;;;;12.71;100.00;94989.19;10527150;28;1847;-76
2023/08/29 09:29:28;;;;;;;;;;;;;;;12.35;100.00;94981.13;10524136;28;1985;-74
2023/08/29 09:34:31;;;;;;;;;;;;;;;12.05;100.00;94983.38;10507582;28;2060;-76
2023/08/29 09:39:33;;;;;;;;;;;;;;;12.44;100.00;94982.78;10504116;28;1967;-74
2023/08/29 09:44:36;;;;;;;;;;;;;;;12.68;100.00;94987.09;10514469;28;4540;-75
2023/08/29 09:49:38;;;;;;;;;;;;;;;12.83;100.00;94989.44;10514168;28;1854;-74
2023/08/29 09:54:41;;;;;;;;;;;;;;;12.87;100.00;95001.22;10518180;28;1891;-73
2023/08/29 09:59:43;;;;;;;;;;;;;;;12.81;100.00;94994.34;10503861;28;1995;-74
2023/08/29 10:04:45;;;;;;;;;;;;;;;12.79;100.00;94993.84;10507016;28;1886;-75
2023/08/29 10:09:48;;;;;;;;;;;;;;;12.81;100.00;94997.03;10520202;28;2259;-73
2023/08/29 10:14:50;;;;;;;;;;;;;;;12.63;100.00;94989.91;10523015;28;1871;-74
2023/08/29 10:19:53;;;;;;;;;;;;;;;12.66;100.00;95010.88;10526143;28;1917;-74
2023/08/29 10:24:55;;;;;;;;;;;;;;;12.84;100.00;95001.00;10519555;28;1799;-76
2023/08/29 10:29:58;;;;;;;;;;;;;;;13.12;100.00;94997.09;10533595;28;1830;-73
2023/08/29 10:35:00;;;;;;;;;;;;;;;13.30;100.00;94991.84;10529795;28;1807;-74
2023/08/29 10:40:02;;;;;;;;;;;;;;;13.74;100.00;94991.72;10534691;28;1918;-73
2023/08/29 10:45:05;;;;;;;;;;;;;;;13.98;100.00;94985.91;10528375;28;4520;-75
2023/08/29 10:50:07;;;;;;;;;;;;;;;14.25;100.00;94978.63;10519405;28;1871;-76
2023/08/29 10:55:10;;;;;;;;;;;;;;;13.60;100.00;94982.91;10516749;28;1913;-75
2023/08/29 11:00:12;;;;;;;;;;;;;;;13.97;100.00;94984.31;10523049;28;1913;-75
2023/08/29 11:05:15;;;;;;;;;;;;;;;14.49;100.00;94970.09;10518148;28;2560;-75
2023/08/29 11:10:18;;;;;;;;;;;;;;;14.51;100.00;94955.16;10513730;28;1863;-75
2023/08/29 11:15:21;;;;;;;;;;;;;;;13.60;100.00;94964.00;10521674;28;2038;-74
2023/08/29 11:20:23;;;;;;;;;;;;;;;13.52;100.00;94962.88;10522043;28;1996;-76
2023/08/29 11:25:26;;;;;;;;;;;;;;;13.94;100.00;94957.94;10522055;28;2017;-75
2023/08/29 11:30:29;;;;;;;;;;;;;;;13.52;100.00;94949.38;10515450;28;2110;-73
2023/08/29 11:35:45;;;;;;;;;;;;;;;13.53;100.00;94959.06;10515089;28;1937;-74
2023/08/29 11:40:47;;;;;;;;;;;;;;;14.10;100.00;94963.66;10514932;28;4520;-74
2023/08/29 11:46:10;;;;;;;;;;;;;;;14.91;100.00;94949.56;10512355;28;1878;-75
2023/08/29 11:51:12;;;;;;;;;;;;;;;14.36;100.00;94955.59;10522407;28;1912;-73
2023/08/29 11:56:15;;;;;;;;;;;;;;;14.45;100.00;94961.81;10516705;28;2049;-74
2023/08/29 12:01:18;;;;;;;;;;;;;;;14.45;100.00;94966.44;10514144;28;2288;-74
2023/08/29 12:06:20;;;;;;;;;;;;;;;13.65;100.00;94976.56;10507932;28;1838;-76
2023/08/29 12:11:23;;;;;;;;;;;;;;;13.64;100.00;94988.50;10514764;28;1795;-76
2023/08/29 12:16:25;;;;;;;;;;;;;;;13.63;100.00;94995.00;10519311;28;2052;-76
2023/08/29 12:21:28;;;;;;;;;;;;;;;13.49;100.00;94998.59;10519762;28;1977;-75
2023/08/29 12:26:30;;;;;;;;;;;;;;;13.70;100.00;95011.56;10521777;28;1870;-76
2023/08/29 12:31:33;;;;;;;;;;;;;;;13.51;100.00;95004.47;10510311;28;2017;-73
2023/08/29 12:36:36;;;;;;;;;;;;;;;13.76;100.00;95010.31;10514625;28;1874;-75
2023/08/29 12:41:38;;;;;;;;;;;;;;;13.41;100.00;95015.53;10510904;28;4548;-75
2023/08/29 12:46:41;;;;;;;;;;;;;;;13.21;100.00;95016.06;10521631;28;1890;-76
2023/08/29 12:51:44;;;;;;;;;;;;;;;13.12;100.00;95015.19;10514546;28;1778;-76
2023/08/29 12:56:47;;;;;;;;;;;;;;;12.96;100.00;95015.53;10516432;28;2251;-75
2023/08/29 13:01:49;;;;;;;;;;;;;;;12.77;100.00;95020.31;10514648;28;1906;-75
2023/08/29 13:06:51;;;;;;;;;;;;;;;13.34;100.00;95015.19;10511537;28;1831;-75
2023/08/29 13:11:54;;;;;;;;;;;;;;;13.56;100.00;95005.47;10521859;28;1915;-76
2023/08/29 13:16:58;;;;;;;;;;;;;;;13.93;100.00;95010.38;10521701;28;1798;-76
2023/08/29 13:22:00;;;;;;;;;;;;;;;13.52;100.00;95006.06;10520166;28;1981;-75
2023/08/29 13:27:02;;;;;;;;;;;;;;;13.30;100.00;94998.03;10512366;28;1886;-74
2023/08/29 13:32:05;;;;;;;;;;;;;;;12.91;100.00;95004.88;10519628;28;1846;-72
2023/08/29 13:37:07;;;;;;;;;;;;;;;13.09;100.00;95013.09;10514430;28;1866;-74
2023/08/29 13:42:10;;;;;;;;;;;;;;;12.73;100.00;95010.47;10513671;28;4538;-75
2023/08/29 13:47:12;;;;;;;;;;;;;;;12.82;100.00;95014.81;10508879;28;1850;-74
2023/08/29 13:52:14;;;;;;;;;;;;;;;12.88;100.00;95018.97;10500565;28;2301;-74
2023/08/29 13:57:17;;;;;;;;;;;;;;;12.88;100.00;95018.97;10492979;28;1898;-76
2023/08/29 14:02:19;;;;;;;;;;;;;;;13.07;100.00;95009.91;10511103;28;1963;-75
2023/08/29 14:07:22;;;;;;;;;;;;;;;13.08;100.00;95012.28;10503995;28;1964;-75
2023/08/29 14:12:24;;;;;;;;;;;;;;;13.31;100.00;95015.81;10501460;28;2020;-75
2023/08/29 14:17:26;;;;;;;;;;;;;;;13.33;100.00;95002.78;10508011;28;1949;-76
2023/08/29 14:22:29;;;;;;;;;;;;;;;13.07;100.00;95010.69;10503681;28;1909;-76
2023/08/29 14:27:31;;;;;;;;;;;;;;;12.99;100.00;95014.94;10507141;28;2226;-74
2023/08/29 14:32:34;;;;;;;;;;;;;;;12.95;100.00;95013.94;10512331;28;1928;-73
2023/08/29 14:37:36;;;;;;;;;;;;;;;13.00;100.00;95015.75;10501948;28;1813;-75
2023/08/29 14:42:39;;;;;;;;;;;;;;;13.10;100.00;95028.97;10509613;28;4562;-75
2023/08/29 14:47:41;;;;;;;;;;;;;;;13.20;100.00;95025.22;10511474;28;1914;-75
2023/08/29 14:52:44;;;;;;;;;;;;;;;13.28;100.00;95021.81;10512403;28;2372;-75
2023/08/29 14:57:46;;;;;;;;;;;;;;;13.20;100.00;95031.44;10520168;28;1783;-77
2023/08/29 15:02:49;;;;;;;;;;;;;;;12.96;100.00;95039.03;10512690;28;1922;-75
2023/08/29 15:07:51;;;;;;;;;;;;;;;12.63;100.00;95046.53;10520179;28;1940;-75
2023/08/29 15:12:53;;;;;;;;;;;;;;;12.51;100.00;95051.66;10524134;28;1855;-75
2023/08/29 15:17:56;;;;;;;;;;;;;;;12.25;100.00;95048.72;10515828;28;2068;-75
2023/08/29 15:22:58;;;;;;;;;;;;;;;12.17;100.00;95053.72;10519413;28;1918;-79
2023/08/29 15:28:01;;;;;;;;;;;;;;;12.39;100.00;95044.09;10530016;28;1813;-79
2023/08/29 15:33:03;;;;;;;;;;;;;;;12.41;100.00;95053.47;10515622;28;1886;-75
2023/08/29 15:38:06;;;;;;;;;;;;;;;12.26;100.00;95059.19;10523066;28;1846;-77
2023/08/29 15:43:09;;;;;;;;;;;;;;;12.25;100.00;95054.09;10527084;28;4520;-76
2023/08/29 15:48:11;;;;;;;;;;;;;;;12.34;100.00;95053.09;10517765;28;2452;-74
2023/08/29 15:53:14;;;;;;;;;;;;;;;12.46;100.00;95060.63;10521012;28;2030;-74
2023/08/29 15:58:17;;;;;;;;;;;;;;;12.55;100.00;95058.84;10523076;28;1791;-74
2023/08/29 16:03:20;;;;;;;;;;;;;;;12.54;100.00;95062.66;10524248;28;2009;-75
2023/08/29 16:08:24;;;;;;;;;;;;;;;12.34;100.00;95068.44;10524240;28;1937;-75
2023/08/29 16:13:26;;;;;;;;;;;;;;;12.26;100.00;95078.03;10527819;28;1831;-75
2023/08/29 16:18:29;;;;;;;;;;;;;;;12.31;100.00;95086.03;10519125;28;1810;-75
2023/08/29 16:23:31;;;;;;;;;;;;;;;12.33;100.00;95078.44;10523009;28;1917;-73
2023/08/29 16:28:34;;;;;;;;;;;;;;;12.27;100.00;95089.63;10526767;28;1976;-75
2023/08/29 16:33:36;;;;;;;;;;;;;;;12.12;100.00;95085.34;10527869;28;1867;-73
2023/08/29 16:38:38;;;;;;;;;;;;;;;12.00;100.00;95085.84;10525945;28;1897;-73
2023/08/29 16:43:41;;;;;;;;;;;;;;;11.89;100.00;95090.59;10526538;28;4484;-74
2023/08/29 16:48:43;;;;;;;;;;;;;;;11.72;100.00;95093.06;10523941;28;1990;-74
2023/08/29 16:53:46;;;;;;;;;;;;;;;11.73;100.00;95097.34;10532792;28;1942;-76
2023/08/29 16:58:50;;;;;;;;;;;;;;;11.70;100.00;95105.22;10529042;28;1807;-78
2023/08/29 17:03:52;;;;;;;;;;;;;;;11.75;100.00;95103.22;10527845;28;1914;-77
2023/08/29 17:08:55;;;;;;;;;;;;;;;11.64;100.00;95099.13;10519310;28;1618;-76
2023/08/29 17:13:57;;;;;;;;;;;;;;;11.72;100.00;95103.84;10526682;28;1493;-77
2023/08/29 17:19:00;;;;;;;;;;;;;;;11.80;100.00;95108.53;10524508;28;1652;-75
2023/08/29 17:24:03;;;;;;;;;;;;;;;11.74;100.00;95125.88;10524013;28;1906;-76
2023/08/29 17:29:05;;;;;;;;;;;;;;;11.62;100.00;95122.84;10525833;28;1552;-77
2023/08/29 17:34:08;;;;;;;;;;;;;;;11.62;100.00;95122.84;10523878;28;1576;-78
2023/08/29 17:39:11;;;;;;;;;;;;;;;11.55;100.00;95123.22;10531503;28;2384;-76
2023/08/29 17:44:14;;;;;;;;;;;;;;;11.61;100.00;95126.63;10530292;28;4649;-75
2023/08/29 17:49:17;;;;;;;;;;;;;;;11.52;100.00;95128.41;10532995;28;1835;-77
2023/08/29 17:54:20;;;;;;;;;;;;;;;11.46;100.00;95122.31;10530178;28;1517;-77
2023/08/29 17:59:22;;;;;;;;;;;;;;;11.50;100.00;95122.50;10527118;28;1530;-77
2023/08/29 18:04:25;;;;;;;;;;;;;;;11.61;100.00;95122.06;10524335;28;1985;-76
2023/08/29 18:09:28;;;;;;;;;;;;;;;11.61;100.00;95126.63;10531502;28;1787;-76
2023/08/29 18:14:30;;;;;;;;;;;;;;;11.73;100.00;95124.28;10530782;28;2010;-76
2023/08/29 18:19:32;;;;;;;;;;;;;;;11.81;100.00;95134.38;10525766;28;1656;-77
2023/08/29 18:24:35;;;;;;;;;;;;;;;11.81;100.00;95138.97;10525524;28;1988;-77
2023/08/29 18:29:37;;;;;;;;;;;;;;;11.70;100.00;95135.63;10532431;28;1459;-77
2023/08/29 18:34:40;;;;;;;;;;;;;;;11.76;100.00;95145.22;10538969;28;2366;-85
2023/08/29 18:39:42;;;;;;;;;;;;;;;11.78;100.00;95139.56;10537085;28;1755;-78
2023/08/29 18:44:44;;;;;;;;;;;;;;;11.78;100.00;95153.00;10525908;28;4614;-81
2023/08/29 18:49:47;;;;;;;;;;;;;;;11.86;100.00;95155.84;10539199;28;1838;-79
2023/08/29 18:54:49;;;;;;;;;;;;;;;11.82;100.00;95157.53;10530090;28;1902;-79
2023/08/29 18:59:51;;;;;;;;;;;;;;;11.86;100.00;95160.44;10531169;28;1803;-75
2023/08/29 19:04:54;;;;;;;;;;;;;;;11.85;100.00;95159.63;10522931;28;2150;-75
2023/08/29 19:09:56;;;;;;;;;;;;;;;11.77;100.00;95167.53;10525174;28;1779;-75
2023/08/29 19:15:00;;;;;;;;;;;;;;;11.75;100.00;95165.16;10524106;28;1953;-76
2023/08/29 19:20:03;;;;;;;;;;;;;;;11.72;100.00;95164.97;10514874;28;1878;-76
2023/08/29 19:25:05;;;;;;;;;;;;;;;11.64;100.00;95161.03;10520530;28;1986;-76
2023/08/29 19:30:09;;;;;;;;;;;;;;;11.68;100.00;95158.56;10511896;28;2273;-76
2023/08/29 19:35:13;;;;;;;;;;;;;;;11.67;100.00;95151.59;10531017;28;1805;-74
2023/08/29 19:40:16;;;;;;;;;;;;;;;11.68;100.00;95158.56;10518418;28;1837;-75
2023/08/29 19:45:21;;;;;;;;;;;;;;;11.69;100.00;95160.94;10524186;28;4561;-76
2023/08/29 19:50:23;;;;;;;;;;;;;;;11.68;100.00;95158.56;10524315;28;1823;-76
2023/08/29 19:55:26;;;;;;;;;;;;;;;11.68;100.00;95153.97;10523967;28;1834;-75
2023/08/29 20:00:31;;;;;;;;;;;;;;;11.69;100.00;95163.66;10518387;28;1914;-75
2023/08/29 20:05:34;;;;;;;;;;;;;;;11.68;100.00;95164.75;10530995;27;1803;-74
2023/08/29 20:10:36;;;;;;;;;;;;;;;11.63;100.00;95170.22;10523863;28;1891;-75
2023/08/29 20:15:38;;;;;;;;;;;;;;;11.69;100.00;95160.16;10525115;28;1866;-76
2023/08/29 20:20:41;;;;;;;;;;;;;;;11.66;100.00;95169.63;10523985;28;1917;-74
2023/08/29 20:25:43;;;;;;;;;;;;;;;11.68;100.00;95166.63;10516406;28;1819;-74
2023/08/29 20:30:46;;;;;;;;;;;;;;;11.65;100.00;95173.44;10517153;28;2717;-72
2023/08/29 20:35:48;;;;;;;;;;;;;;;11.62;100.00;95174.00;10518258;28;1846;-73
2023/08/29 20:40:51;;;;;;;;;;;;;;;11.74;100.00;95171.66;10521079;28;4485;-75
2023/08/29 20:45:53;;;;;;;;;;;;;;;11.75;100.00;95175.94;10519898;28;1889;-72
2023/08/29 20:50:55;;;;;;;;;;;;;;;11.76;100.00;95171.34;10523988;28;1882;-75
2023/08/29 20:55:58;;;;;;;;;;;;;;;11.72;100.00;95173.03;10526156;28;1878;-73
2023/08/29 21:01:00;;;;;;;;;;;;;;;11.76;100.00;95182.91;10523078;28;1944;-73
2023/08/29 21:06:03;;;;;;;;;;;;;;;11.75;100.00;95189.38;10519684;28;1854;-73
2023/08/29 21:11:05;;;;;;;;;;;;;;;11.69;100.00;95182.50;10515640;28;1999;-73
2023/08/29 21:16:08;;;;;;;;;;;;;;;11.80;100.00;95183.94;10516592;28;1992;-72
2023/08/29 21:21:10;;;;;;;;;;;;;;;11.86;100.00;95182.78;10527087;28;1914;-72
2023/08/29 21:26:12;;;;;;;;;;;;;;;11.93;100.00;95182.38;10523914;28;2433;-72
2023/08/29 21:31:16;;;;;;;;;;;;;;;11.89;100.00;95187.56;10515895;28;1767;-73
2023/08/29 21:36:18;;;;;;;;;;;;;;;11.96;100.00;95189.06;10524073;28;1860;-74
2023/08/29 21:41:21;;;;;;;;;;;;;;;11.92;100.00;95180.78;10516996;28;1976;-72
2023/08/29 21:46:23;;;;;;;;;;;;;;;11.94;100.00;95178.59;10527486;28;1826;-73
2023/08/29 21:51:25;;;;;;;;;;;;;;;11.99;100.00;95181.22;10516651;28;1894;-73
2023/08/29 21:56:28;;;;;;;;;;;;;;;11.97;100.00;95178.03;10524953;28;1831;-73
2023/08/29 22:01:30;;;;;;;;;;;;;;;11.99;100.00;95180.41;10521000;28;2039;-73
2023/08/29 22:06:33;;;;;;;;;;;;;;;11.98;100.00;95170.75;10527295;28;1846;-74
2023/08/29 22:11:35;;;;;;;;;;;;;;;11.99;100.00;95183.09;10525246;28;1900;-72
2023/08/29 22:16:38;;;;;;;;;;;;;;;12.01;100.00;95172.81;10523155;28;1831;-72
2023/08/29 22:21:40;;;;;;;;;;;;;;;11.99;100.00;95166.94;10520975;28;1942;-73
2023/08/29 22:26:42;;;;;;;;;;;;;;;12.05;100.00;95163.06;10532308;28;1928;-73
2023/08/29 22:31:45;;;;;;;;;;;;;;;12.05;100.00;95171.16;10534930;28;1870;-73
2023/08/29 22:36:47;;;;;;;;;;;;;;;12.04;100.00;95166.84;10527462;28;1807;-74
2023/08/29 22:41:49;;;;;;;;;;;;;;;11.99;100.00;95164.25;10534744;28;4676;-72
2023/08/29 22:46:52;;;;;;;;;;;;;;;12.03;100.00;95166.06;10529655;28;2029;-72
2023/08/29 22:51:54;;;;;;;;;;;;;;;11.99;100.00;95153.47;10525465;28;1802;-73
2023/08/29 22:56:57;;;;;;;;;;;;;;;11.98;100.00;95155.38;10534150;28;2101;-73
2023/08/29 23:02:00;;;;;;;;;;;;;;;12.07;100.00;95158.16;10531462;28;2094;-73
2023/08/29 23:07:03;;;;;;;;;;;;;;;12.05;100.00;95168.44;10527604;28;2590;-74
2023/08/29 23:12:05;;;;;;;;;;;;;;;12.01;100.00;95162.03;10527409;28;1826;-74
2023/08/29 23:17:10;;;;;;;;;;;;;;;12.05;100.00;95153.09;10534506;28;2435;-75
2023/08/29 23:22:12;;;;;;;;;;;;;;;12.05;100.00;95157.69;10518214;28;1992;-74
2023/08/29 23:27:15;;;;;;;;;;;;;;;12.03;100.00;95149.91;10541705;28;1925;-73
2023/08/29 23:32:18;;;;;;;;;;;;;;;11.92;100.00;95145.00;10529026;28;1901;-72
2023/08/29 23:37:20;;;;;;;;;;;;;;;11.93;100.00;95138.50;10527656;28;2026;-74
2023/08/29 23:42:22;;;;;;;;;;;;;;;11.98;100.00;95141.91;10531147;28;4651;-73
2023/08/29 23:47:25;;;;;;;;;;;;;;;12.04;100.00;95142.63;10533898;28;1842;-73
2023/08/29 23:52:27;;;;;;;;;;;;;;;12.05;100.00;95147.69;10519791;28;1858;-73
2023/08/29 23:57:30;;;;;;;;;;;;;;;12.04;100.00;95145.31;10533814;28;1882;-72
